createdAt,value
2018-09-04T00:00:33.386Z,8.50
2018-09-04T00:03:07.947Z,8.80
2018-09-04T00:05:42.722Z,8.90
2018-09-04T00:08:17.731Z,8.10
2018-09-04T00:10:52.346Z,7.03
2018-09-04T00:13:26.877Z,9.33
2018-09-04T00:16:05.771Z,9.10
2018-09-04T00:18:41.403Z,7.57
2018-09-04T00:21:16.197Z,7.43
2018-09-04T00:23:50.988Z,12.17
2018-09-04T00:26:25.672Z,10.20
2018-09-04T00:29:00.264Z,6.73
2018-09-04T00:31:35.087Z,8.10
2018-09-04T00:34:09.777Z,7.27
2018-09-04T00:36:44.463Z,7.57
2018-09-04T00:39:19.135Z,7.73
2018-09-04T00:41:53.799Z,7.23
2018-09-04T00:44:28.431Z,8.37
2018-09-04T00:47:03.153Z,7.80
2018-09-04T00:49:37.850Z,7.60
2018-09-04T00:52:12.638Z,6.83
2018-09-04T00:54:47.117Z,10.20
2018-09-04T00:57:21.870Z,7.43
2018-09-04T00:59:56.431Z,7.70
2018-09-04T01:02:31.417Z,6.97
2018-09-04T01:05:06.039Z,15.20
2018-09-04T01:07:40.616Z,7.07
2018-09-04T01:10:15.107Z,6.73
2018-09-04T01:12:50.747Z,6.37
2018-09-04T01:15:25.210Z,6.40
2018-09-04T01:17:59.818Z,6.37
2018-09-04T01:20:34.664Z,6.90
2018-09-04T01:23:10.004Z,6.47
2018-09-04T01:25:44.582Z,7.13
2018-09-04T01:28:19.174Z,6.40
2018-09-04T01:30:53.810Z,7.83
2018-09-04T01:33:28.534Z,6.70
2018-09-04T01:36:03.235Z,6.60
2018-09-04T01:38:37.871Z,7.10
2018-09-04T01:41:12.365Z,6.97
2018-09-04T01:43:47.460Z,6.93
2018-09-04T01:46:22.158Z,8.17
2018-09-04T01:48:56.845Z,8.07
2018-09-04T01:51:31.319Z,11.27
2018-09-04T01:54:06.012Z,10.20
2018-09-04T01:56:40.687Z,9.33
2018-09-04T01:59:15.376Z,9.67
2018-09-04T02:01:50.030Z,8.77
2018-09-04T02:04:24.601Z,7.53
2018-09-04T02:06:59.106Z,9.37
2018-09-04T02:09:33.618Z,6.60
2018-09-04T02:12:08.310Z,7.80
2018-09-04T02:14:42.793Z,7.50
2018-09-04T02:17:17.274Z,7.00
2018-09-04T02:19:51.798Z,7.40
2018-09-04T02:22:26.456Z,10.53
2018-09-04T02:25:00.983Z,9.23
2018-09-04T02:27:35.499Z,7.27
2018-09-04T02:30:10.096Z,7.40
2018-09-04T02:32:44.686Z,10.37
2018-09-04T02:35:19.755Z,8.40
2018-09-04T02:37:54.273Z,8.03
2018-09-04T02:40:28.793Z,7.20
2018-09-04T02:43:03.314Z,7.70
2018-09-04T02:45:37.949Z,10.70
2018-09-04T02:48:12.646Z,7.90
2018-09-04T02:50:47.402Z,8.03
2018-09-04T02:53:22.091Z,8.97
2018-09-04T02:55:56.655Z,8.40
2018-09-04T02:58:31.352Z,7.50
2018-09-04T03:01:05.894Z,7.40
2018-09-04T03:03:40.910Z,9.63
2018-09-04T03:06:15.611Z,6.93
2018-09-04T03:08:50.173Z,7.70
2018-09-04T03:11:24.906Z,7.00
2018-09-04T03:13:59.512Z,7.00
2018-09-04T03:16:34.132Z,10.67
2018-09-04T03:19:08.879Z,7.73
2018-09-04T03:21:43.449Z,6.97
2018-09-04T03:24:18.210Z,8.33
2018-09-04T03:26:52.734Z,9.93
2018-09-04T03:29:27.691Z,7.33
2018-09-04T03:32:02.252Z,8.20
2018-09-04T03:34:36.804Z,8.67
2018-09-04T03:37:11.307Z,6.90
2018-09-04T03:39:46.014Z,7.13
2018-09-04T03:42:20.679Z,9.47
2018-09-04T03:44:55.250Z,10.13
2018-09-04T03:47:29.979Z,7.57
2018-09-04T03:50:04.915Z,6.77
2018-09-04T03:52:39.423Z,7.20
2018-09-04T03:55:13.907Z,7.57
2018-09-04T03:57:48.486Z,7.67
2018-09-04T04:00:23.410Z,9.40
2018-09-04T04:02:58.090Z,9.00
2018-09-04T04:05:33.049Z,10.30
2018-09-04T04:08:07.691Z,9.30
2018-09-04T04:10:42.408Z,8.83
2018-09-04T04:13:17.007Z,8.93
2018-09-04T04:15:51.570Z,9.30
2018-09-04T04:18:26.074Z,8.83
2018-09-04T04:20:58.150Z,6.80
2018-09-04T04:23:28.015Z,8.08
2018-09-04T04:25:58.658Z,7.47
2018-09-04T04:28:27.641Z,9.40
2018-09-04T04:30:56.648Z,7.13
2018-09-04T04:33:25.731Z,7.03
2018-09-04T04:35:54.733Z,7.63
2018-09-04T04:38:23.786Z,10.50
2018-09-04T04:40:52.818Z,6.50
2018-09-04T04:43:21.865Z,8.20
2018-09-04T04:45:50.908Z,6.97
2018-09-04T04:48:20.061Z,7.50
2018-09-04T04:50:49.002Z,7.70
2018-09-04T04:53:18.045Z,8.00
2018-09-04T04:55:47.023Z,8.87
2018-09-04T04:58:15.990Z,8.63
2018-09-04T05:00:45.302Z,7.80
2018-09-04T05:03:14.332Z,8.10
2018-09-04T05:05:43.326Z,8.00
2018-09-04T05:08:12.410Z,9.73
2018-09-04T05:10:41.453Z,10.90
2018-09-04T05:13:10.820Z,7.33
2018-09-04T05:15:39.827Z,7.73
2018-09-04T05:18:08.895Z,6.60
2018-09-04T05:20:38.008Z,7.60
2018-09-04T05:23:07.006Z,6.47
2018-09-04T05:25:36.056Z,6.83
2018-09-04T05:28:05.083Z,6.27
2018-09-04T05:30:34.079Z,7.47
2018-09-04T05:33:08.520Z,9.73
2018-09-04T05:35:42.210Z,7.57
2018-09-04T05:38:11.231Z,6.07
2018-09-04T05:40:40.219Z,6.83
2018-09-04T05:43:11.363Z,8.10
2018-09-04T05:45:40.829Z,7.73
2018-09-04T05:48:12.507Z,7.73
2018-09-04T05:50:41.567Z,7.10
2018-09-04T05:53:10.746Z,7.33
2018-09-04T05:55:39.849Z,7.80
2018-09-04T05:58:08.846Z,7.83
2018-09-04T06:00:43.287Z,7.80
2018-09-04T06:03:12.391Z,7.17
2018-09-04T06:05:41.439Z,7.47
2018-09-04T06:08:10.438Z,9.70
2018-09-04T06:10:39.529Z,9.43
2018-09-04T06:13:08.532Z,6.90
2018-09-04T06:15:37.574Z,9.23
2018-09-04T06:18:06.612Z,7.90
2018-09-04T06:20:35.725Z,7.67
2018-09-04T06:23:05.068Z,12.07
2018-09-04T06:25:34.091Z,9.50
2018-09-04T06:28:03.802Z,6.40
2018-09-04T06:30:32.958Z,7.53
2018-09-04T06:33:02.091Z,8.90
2018-09-04T06:35:31.196Z,7.83
2018-09-04T06:38:00.220Z,7.43
2018-09-04T06:40:29.290Z,7.90
2018-09-04T06:42:58.326Z,11.10
2018-09-04T06:45:27.371Z,9.27
2018-09-04T06:47:56.364Z,7.97
2018-09-04T06:50:25.445Z,6.63
2018-09-04T06:52:54.430Z,7.00
2018-09-04T06:55:23.422Z,6.73
2018-09-04T06:57:52.663Z,6.90
2018-09-04T07:00:21.646Z,6.67
2018-09-04T07:02:50.726Z,6.40
2018-09-04T07:05:19.807Z,6.57
2018-09-04T07:07:48.861Z,5.63
2018-09-04T07:10:17.910Z,7.30
2018-09-04T07:12:47.323Z,8.70
2018-09-04T07:15:16.355Z,6.53
2018-09-04T07:17:45.390Z,6.60
2018-09-04T07:20:14.487Z,6.73
2018-09-04T07:22:43.525Z,8.93
2018-09-04T07:25:12.507Z,6.87
2018-09-04T07:27:41.639Z,6.57
2018-09-04T07:30:10.682Z,7.87
2018-09-04T07:32:39.772Z,6.00
2018-09-04T07:35:08.826Z,5.70
2018-09-04T07:37:37.883Z,7.07
2018-09-04T07:40:07.049Z,7.70
2018-09-04T07:42:36.167Z,5.60
2018-09-04T07:45:05.913Z,6.33
2018-09-04T07:47:34.946Z,9.63
2018-09-04T07:50:04.397Z,7.90
2018-09-04T07:52:33.402Z,6.60
2018-09-04T07:55:02.426Z,6.83
2018-09-04T07:57:31.671Z,7.87
2018-09-04T08:00:00.690Z,6.00
2018-09-04T08:02:29.772Z,6.93
2018-09-04T08:04:58.791Z,6.33
2018-09-04T08:07:28.143Z,8.03
2018-09-04T08:09:57.160Z,5.90
2018-09-04T08:12:26.155Z,9.03
2018-09-04T08:14:55.270Z,5.87
2018-09-04T08:17:24.283Z,5.10
2018-09-04T08:19:53.334Z,5.20
2018-09-04T08:22:22.404Z,5.60
2018-09-04T08:24:51.910Z,5.20
2018-09-04T08:27:21.820Z,4.50
2018-09-04T08:29:50.840Z,6.90
2018-09-04T08:32:20.055Z,4.70
2018-09-04T08:34:49.049Z,7.00
2018-09-04T08:37:18.079Z,5.63
2018-09-04T08:39:47.180Z,5.40
2018-09-04T08:42:16.221Z,4.70
2018-09-04T08:44:45.399Z,4.87
2018-09-04T08:47:14.499Z,4.47
2018-09-04T08:49:43.535Z,4.30
2018-09-04T08:52:12.617Z,5.53
2018-09-04T08:54:41.712Z,4.87
2018-09-04T08:57:10.747Z,4.27
2018-09-04T08:59:39.815Z,4.50
2018-09-04T09:02:08.949Z,5.20
2018-09-04T09:04:38.305Z,5.30
2018-09-04T09:07:07.419Z,5.13
2018-09-04T09:09:36.541Z,4.80
2018-09-04T09:12:06.056Z,6.07
2018-09-04T09:14:35.079Z,5.20
2018-09-04T09:17:04.192Z,5.07
2018-09-04T09:19:33.279Z,5.50
2018-09-04T09:22:02.276Z,5.40
2018-09-04T09:24:31.454Z,5.50
2018-09-04T09:27:00.586Z,5.50
2018-09-04T09:29:29.676Z,4.90
2018-09-04T09:31:58.860Z,5.70
2018-09-04T09:34:28.626Z,4.97
2018-09-04T09:36:57.778Z,4.63
2018-09-04T09:39:26.777Z,4.93
2018-09-04T09:41:55.853Z,5.13
2018-09-04T09:44:24.896Z,5.27
2018-09-04T09:46:58.144Z,4.63
2018-09-04T09:49:27.596Z,4.50
2018-09-04T09:51:56.598Z,4.80
2018-09-04T09:54:25.623Z,4.70
2018-09-04T09:56:54.782Z,5.20
2018-09-04T09:59:23.897Z,4.50
2018-09-04T10:01:53.046Z,4.40
2018-09-04T10:04:22.073Z,5.10
2018-09-04T10:06:51.130Z,5.33
2018-09-04T10:09:20.322Z,4.80
2018-09-04T10:11:49.459Z,5.60
2018-09-04T10:14:18.543Z,5.17
2018-09-04T10:16:47.614Z,4.67
2018-09-04T10:19:16.692Z,6.40
2018-09-04T10:21:45.694Z,5.27
2018-09-04T10:24:14.846Z,5.00
2018-09-04T10:26:43.926Z,4.23
2018-09-04T10:29:12.921Z,7.73
2018-09-04T10:31:41.988Z,7.73
2018-09-04T10:34:11.097Z,4.93
2018-09-04T10:36:40.131Z,6.90
2018-09-04T10:39:14.506Z,7.10
2018-09-04T10:41:43.585Z,9.60
2018-09-04T10:44:12.673Z,10.23
2018-09-04T10:46:41.705Z,5.60
2018-09-04T10:49:10.804Z,5.43
2018-09-04T10:51:39.853Z,10.30
2018-09-04T10:54:08.922Z,4.90
2018-09-04T10:56:38.157Z,5.90
2018-09-04T10:59:07.392Z,5.00
2018-09-04T11:01:36.461Z,4.67
2018-09-04T11:04:05.722Z,4.30
2018-09-04T11:06:34.776Z,5.13
2018-09-04T11:09:07.297Z,5.00
2018-09-04T11:11:36.667Z,3.83
2018-09-04T11:14:05.750Z,4.90
2018-09-04T11:16:34.819Z,4.33
2018-09-04T11:19:04.140Z,4.63
2018-09-04T11:21:33.211Z,4.20
2018-09-04T11:24:02.298Z,4.27
2018-09-04T11:26:31.488Z,4.00
2018-09-04T11:29:02.942Z,4.10
2018-09-04T11:31:32.062Z,5.40
2018-09-04T11:34:01.148Z,4.13
2018-09-04T11:36:30.323Z,5.30
2018-09-04T11:38:59.604Z,5.30
2018-09-04T11:41:28.713Z,4.17
2018-09-04T11:43:57.802Z,5.50
2018-09-04T11:46:26.917Z,5.47
2018-09-04T11:48:56.040Z,4.30
2018-09-04T11:51:25.119Z,5.53
2018-09-04T11:53:54.487Z,4.30
2018-09-04T11:56:23.606Z,4.90
2018-09-04T11:58:52.687Z,5.10
2018-09-04T12:01:24.746Z,4.90
2018-09-04T12:03:53.857Z,4.30
2018-09-04T12:06:23.087Z,4.40
2018-09-04T12:08:52.213Z,4.87
2018-09-04T12:11:21.234Z,5.53
2018-09-04T12:13:50.345Z,4.33
2018-09-04T12:16:19.531Z,4.50
2018-09-04T12:18:48.574Z,4.80
2018-09-04T12:21:17.680Z,4.57
2018-09-04T12:23:46.703Z,4.17
2018-09-04T12:26:15.828Z,4.37
2018-09-04T12:28:44.902Z,4.77
2018-09-04T12:31:14.011Z,4.03
2018-09-04T12:33:43.139Z,4.60
2018-09-04T12:36:12.203Z,4.13
2018-09-04T12:38:42.727Z,4.43
2018-09-04T12:41:15.659Z,5.83
2018-09-04T12:43:45.014Z,4.83
2018-09-04T12:46:14.082Z,3.90
2018-09-04T12:48:50.235Z,3.70
2018-09-04T12:51:19.762Z,4.20
2018-09-04T12:53:48.911Z,4.37
2018-09-04T12:56:17.985Z,4.00
2018-09-04T12:58:47.066Z,4.80
2018-09-04T13:01:16.167Z,4.83
2018-09-04T13:03:45.276Z,4.57
2018-09-04T13:06:14.972Z,5.00
2018-09-04T13:08:44.000Z,4.60
2018-09-04T13:11:13.219Z,5.03
2018-09-04T13:13:42.325Z,4.97
2018-09-04T13:16:11.599Z,5.20
2018-09-04T13:18:40.959Z,5.30
2018-09-04T13:21:10.293Z,5.30
2018-09-04T13:23:39.382Z,5.13
2018-09-04T13:26:08.483Z,5.10
2018-09-04T13:28:37.831Z,5.77
2018-09-04T13:31:06.979Z,5.77
2018-09-04T13:33:36.054Z,8.13
2018-09-04T13:36:05.917Z,5.67
2018-09-04T13:38:34.999Z,5.30
2018-09-04T13:41:06.877Z,5.23
2018-09-04T13:43:36.729Z,5.33
2018-09-04T13:46:06.174Z,5.70
2018-09-04T13:48:36.023Z,4.90
2018-09-04T13:51:05.176Z,5.70
2018-09-04T13:53:34.260Z,5.43
2018-09-04T13:56:03.278Z,5.50
2018-09-04T13:58:32.354Z,4.80
2018-09-04T14:01:01.599Z,5.53
2018-09-04T14:03:30.670Z,5.87
2018-09-04T14:05:59.806Z,5.93
2018-09-04T14:08:28.962Z,5.53
2018-09-04T14:10:58.028Z,5.60
2018-09-04T14:13:27.134Z,6.13
2018-09-04T14:15:59.502Z,5.50
2018-09-04T14:18:28.866Z,6.40
2018-09-04T14:20:58.041Z,5.13
2018-09-04T14:23:27.024Z,5.87
2018-09-04T14:25:56.512Z,6.27
2018-09-04T14:28:41.385Z,7.60
2018-09-04T14:30:54.676Z,5.37
2018-09-04T14:33:23.894Z,6.07
2018-09-04T14:35:53.062Z,6.43
2018-09-04T14:38:22.118Z,6.70
2018-09-04T14:40:51.309Z,8.20
2018-09-04T14:43:20.608Z,6.00
2018-09-04T14:45:49.654Z,7.83
2018-09-04T14:48:18.671Z,5.43
2018-09-04T14:50:47.863Z,5.67
2018-09-04T14:53:16.924Z,5.30
2018-09-04T14:55:46.064Z,6.53
2018-09-04T14:58:15.497Z,5.40
2018-09-04T15:00:44.523Z,12.13
2018-09-04T15:03:13.747Z,8.17
2018-09-04T15:05:42.872Z,8.80
2018-09-04T15:08:11.929Z,6.33
2018-09-04T15:10:41.052Z,7.47
2018-09-04T15:13:10.123Z,6.43
2018-09-04T15:15:39.196Z,11.13
2018-09-04T15:18:08.517Z,12.07
2018-09-04T15:20:37.809Z,8.97
2018-09-04T15:23:07.310Z,10.27
2018-09-04T15:25:36.353Z,7.10
2018-09-04T15:28:05.430Z,6.83
2018-09-04T15:30:34.832Z,6.70
2018-09-04T15:33:05.117Z,7.00
2018-09-04T15:35:34.158Z,6.37
2018-09-04T15:38:03.301Z,5.33
2018-09-04T15:40:33.134Z,7.70
2018-09-04T15:43:02.211Z,7.80
2018-09-04T15:45:31.399Z,6.90
2018-09-04T15:48:00.747Z,7.47
2018-09-04T15:50:29.770Z,7.53
2018-09-04T15:52:58.795Z,13.27
2018-09-04T15:55:27.913Z,8.70
2018-09-04T15:57:56.958Z,7.53
2018-09-04T16:00:26.000Z,6.90
2018-09-04T16:02:55.163Z,5.23
2018-09-04T16:05:24.890Z,5.80
2018-09-04T16:07:54.174Z,7.23
2018-09-04T16:10:23.465Z,7.07
2018-09-04T16:12:52.477Z,5.83
2018-09-04T16:15:21.586Z,6.17
2018-09-04T16:17:50.723Z,5.90
2018-09-04T16:20:19.869Z,6.93
2018-09-04T16:22:48.958Z,6.57
2018-09-04T16:25:18.006Z,6.57
2018-09-04T16:27:47.139Z,6.60
2018-09-04T16:30:16.188Z,6.13
2018-09-04T16:32:45.376Z,5.60
2018-09-04T16:35:14.392Z,6.30
2018-09-04T16:37:43.561Z,5.10
2018-09-04T16:40:12.648Z,6.10
2018-09-04T16:42:41.707Z,5.60
2018-09-04T16:45:10.775Z,5.80
2018-09-04T16:47:39.791Z,6.37
2018-09-04T16:50:08.896Z,6.50
2018-09-04T16:52:37.935Z,8.23
2018-09-04T16:55:06.990Z,6.23
2018-09-04T16:57:36.175Z,7.17
2018-09-04T17:00:05.796Z,6.33
2018-09-04T17:02:35.136Z,5.00
2018-09-04T17:05:04.248Z,7.00
2018-09-04T17:07:33.249Z,6.20
2018-09-04T17:10:02.369Z,5.80
2018-09-04T17:12:31.730Z,6.53
2018-09-04T17:15:00.847Z,5.70
2018-09-04T17:17:29.889Z,6.47
2018-09-04T17:19:59.104Z,5.37
2018-09-04T17:22:28.142Z,6.40
2018-09-04T17:24:57.194Z,5.97
2018-09-04T17:27:26.451Z,6.70
2018-09-04T17:29:55.446Z,6.63
2018-09-04T17:32:25.544Z,5.53
2018-09-04T17:34:54.729Z,5.63
2018-09-04T17:37:23.800Z,7.63
2018-09-04T17:39:53.190Z,7.30
2018-09-04T17:42:22.224Z,6.73
2018-09-04T17:44:51.306Z,5.87
2018-09-04T17:47:20.391Z,7.07
2018-09-04T17:49:49.861Z,8.23
2018-09-04T17:52:18.863Z,6.00
2018-09-04T17:54:47.897Z,6.23
2018-09-04T17:57:17.139Z,7.40
2018-09-04T17:59:46.147Z,6.77
2018-09-04T18:02:15.215Z,7.50
2018-09-04T18:04:44.300Z,6.40
2018-09-04T18:07:13.411Z,6.60
2018-09-04T18:09:42.765Z,6.47
2018-09-04T18:12:11.944Z,7.27
2018-09-04T18:14:41.069Z,9.83
2018-09-04T18:17:10.216Z,6.83
2018-09-04T18:19:39.266Z,7.93
2018-09-04T18:22:08.326Z,7.00
2018-09-04T18:24:37.385Z,7.73
2018-09-04T18:27:06.479Z,7.70
2018-09-04T18:29:35.539Z,8.50
2018-09-04T18:32:04.698Z,7.67
2018-09-04T18:34:33.922Z,11.33
2018-09-04T18:37:02.892Z,7.77
2018-09-04T18:39:31.932Z,8.47
2018-09-04T18:42:01.022Z,7.20
2018-09-04T18:44:30.104Z,8.13
2018-09-04T18:46:59.218Z,6.70
2018-09-04T18:49:28.286Z,8.30
2018-09-04T18:51:57.323Z,7.90
2018-09-04T18:54:26.363Z,7.77
2018-09-04T18:56:55.462Z,12.47
2018-09-04T18:59:24.549Z,8.87
2018-09-04T19:01:53.603Z,9.70
2018-09-04T19:04:22.654Z,7.80
2018-09-04T19:06:51.785Z,9.30
2018-09-04T19:09:20.781Z,12.03
2018-09-04T19:11:49.954Z,8.50
2018-09-04T19:14:19.082Z,8.30
2018-09-04T19:16:48.119Z,8.63
2018-09-04T19:19:17.202Z,8.80
2018-09-04T19:21:46.266Z,9.57
2018-09-04T19:24:16.219Z,8.60
2018-09-04T19:26:45.236Z,8.50
2018-09-04T19:29:14.258Z,9.20
2018-09-04T19:31:43.733Z,8.23
2018-09-04T19:34:12.738Z,10.10
2018-09-04T19:36:41.760Z,11.90
2018-09-04T19:39:11.311Z,12.20
2018-09-04T19:41:40.500Z,9.43
2018-09-04T19:44:09.551Z,8.47
2018-09-04T19:46:39.708Z,10.90
2018-09-04T19:49:08.973Z,9.20
2018-09-04T19:51:38.219Z,9.63
2018-09-04T19:54:07.235Z,7.80
2018-09-04T19:56:37.125Z,9.80
2018-09-04T19:59:06.195Z,8.70
2018-09-04T20:01:35.203Z,9.47
2018-09-04T20:04:04.847Z,9.40
2018-09-04T20:06:33.889Z,9.80
2018-09-04T20:09:03.328Z,8.60
2018-09-04T20:11:32.347Z,8.87
2018-09-04T20:14:01.335Z,9.57
2018-09-04T20:16:30.572Z,10.10
2018-09-04T20:18:59.593Z,10.00
2018-09-04T20:21:28.635Z,10.60
2018-09-04T20:23:57.701Z,11.20
2018-09-04T20:26:26.756Z,11.20
2018-09-04T20:28:55.768Z,11.70
2018-09-04T20:31:24.812Z,10.23
2018-09-04T20:33:53.826Z,12.13
2018-09-04T20:36:22.810Z,12.80
2018-09-04T20:38:51.846Z,9.53
2018-09-04T20:41:20.926Z,13.13
2018-09-04T20:43:49.968Z,12.67
2018-09-04T20:46:19.034Z,10.50
2018-09-04T20:48:48.070Z,11.37
2018-09-04T20:51:22.798Z,10.70
2018-09-04T20:53:57.567Z,10.70
2018-09-04T20:56:32.237Z,13.17
2018-09-04T20:59:18.043Z,9.77
2018-09-04T21:02:04.117Z,11.13
2018-09-04T21:04:49.854Z,11.70
2018-09-04T21:07:40.151Z,10.10
2018-09-04T21:10:14.850Z,10.97
2018-09-04T21:12:49.412Z,10.13
2018-09-04T21:15:23.883Z,11.00
2018-09-04T21:17:58.395Z,10.83
2018-09-04T21:20:32.893Z,10.60
2018-09-04T21:23:07.573Z,11.40
2018-09-04T21:25:42.103Z,11.23
2018-09-04T21:28:16.875Z,14.43
2018-09-04T21:30:51.393Z,11.43
2018-09-04T21:33:26.095Z,9.93
2018-09-04T21:36:00.767Z,10.23
2018-09-04T21:38:35.532Z,9.37
2018-09-04T21:41:10.314Z,10.50
2018-09-04T21:43:46.254Z,11.53
2018-09-04T21:46:21.198Z,11.40
2018-09-04T21:48:55.776Z,10.63
2018-09-04T21:51:30.851Z,12.63
2018-09-04T21:54:05.440Z,12.47
2018-09-04T21:56:40.071Z,14.00
2018-09-04T21:59:14.803Z,12.47
2018-09-04T22:01:49.654Z,10.43
2018-09-04T22:04:24.153Z,9.67
2018-09-04T22:06:58.947Z,11.00
2018-09-04T22:09:37.092Z,12.70
2018-09-04T22:12:12.066Z,12.37
2018-09-04T22:14:46.677Z,12.43
2018-09-04T22:17:21.259Z,12.03
2018-09-04T22:19:56.025Z,10.53
2018-09-04T22:22:30.696Z,9.97
2018-09-04T22:25:05.844Z,11.50
2018-09-04T22:27:40.463Z,10.97
2018-09-04T22:30:16.067Z,11.53
2018-09-04T22:32:51.103Z,11.27
2018-09-04T22:35:25.697Z,12.27
2018-09-04T22:38:01.383Z,12.07
2018-09-04T22:40:36.074Z,12.87
2018-09-04T22:43:10.718Z,11.80
2018-09-04T22:45:45.767Z,11.33
2018-09-04T22:48:20.360Z,11.53
2018-09-04T22:51:00.346Z,11.40
2018-09-04T22:53:35.071Z,11.53
2018-09-04T22:56:09.523Z,10.80
2018-09-04T22:58:44.419Z,11.17
2018-09-04T23:01:18.934Z,12.83
2018-09-04T23:03:53.607Z,12.90
2018-09-04T23:06:28.510Z,11.47
2018-09-04T23:09:03.983Z,10.77
2018-09-04T23:11:38.778Z,12.70
2018-09-04T23:14:13.339Z,10.90
2018-09-04T23:16:48.258Z,11.27
2018-09-04T23:19:22.887Z,11.33
2018-09-04T23:21:57.436Z,10.67
2018-09-04T23:24:32.369Z,11.60
2018-09-04T23:27:08.052Z,11.60
2018-09-04T23:29:42.883Z,13.60
2018-09-04T23:32:17.727Z,11.37
2018-09-04T23:34:52.462Z,12.33
2018-09-04T23:37:27.178Z,12.00
2018-09-04T23:40:01.766Z,10.73
2018-09-04T23:42:36.311Z,10.87
2018-09-04T23:45:12.608Z,12.13
2018-09-04T23:47:47.218Z,12.40
2018-09-04T23:50:21.756Z,12.20
2018-09-04T23:52:56.682Z,12.87
2018-09-04T23:55:31.375Z,11.80
2018-09-04T23:58:06.181Z,11.87
